sensor_id;sensor_type;location;lat;lon;timestamp;pressure;altitude;pressure_sealevel;temperature;humidity
75086;BME280;63663;0.000;0.000;2022-12-10T00:00:19;100032.44;;;7.12;45.77
75086;BME280;63663;0.000;0.000;2022-12-10T00:02:44;100035.13;;;7.07;46.04
75086;BME280;63663;0.000;0.000;2022-12-10T00:05:09;100031.31;;;7.03;46.27
75086;BME280;63663;0.000;0.000;2022-12-10T00:07:34;100032.66;;;7.01;46.38
75086;BME280;63663;0.000;0.000;2022-12-10T00:09:59;100030.97;;;6.95;46.52
75086;BME280;63663;0.000;0.000;2022-12-10T00:12:25;100031.25;;;6.93;46.48
75086;BME280;63663;0.000;0.000;2022-12-10T00:14:50;100033.13;;;6.87;46.87
75086;BME280;63663;0.000;0.000;2022-12-10T00:17:15;100042.03;;;6.88;47.01
75086;BME280;63663;0.000;0.000;2022-12-10T00:19:40;100032.00;;;6.83;46.87
75086;BME280;63663;0.000;0.000;2022-12-10T00:22:05;100038.72;;;6.81;46.76
75086;BME280;63663;0.000;0.000;2022-12-10T00:24:31;100042.78;;;6.78;47.25
75086;BME280;63663;0.000;0.000;2022-12-10T00:26:56;100041.69;;;6.74;47.37
75086;BME280;63663;0.000;0.000;2022-12-10T00:29:21;100045.72;;;6.72;47.59
75086;BME280;63663;0.000;0.000;2022-12-10T00:31:46;100038.94;;;6.69;47.57
75086;BME280;63663;0.000;0.000;2022-12-10T00:34:11;100043.50;;;6.64;48.03
75086;BME280;63663;0.000;0.000;2022-12-10T00:36:41;100040.22;;;6.62;48.25
75086;BME280;63663;0.000;0.000;2022-12-10T00:39:06;100043.81;;;6.67;48.19
75086;BME280;63663;0.000;0.000;2022-12-10T00:41:31;100039.41;;;6.61;48.30
75086;BME280;63663;0.000;0.000;2022-12-10T00:43:57;100034.25;;;6.60;48.29
75086;BME280;63663;0.000;0.000;2022-12-10T00:46:22;100032.59;;;6.53;48.62
75086;BME280;63663;0.000;0.000;2022-12-10T00:48:47;100032.03;;;6.51;48.95
75086;BME280;63663;0.000;0.000;2022-12-10T00:51:17;100034.25;;;6.54;48.71
75086;BME280;63663;0.000;0.000;2022-12-10T00:53:42;100032.56;;;6.48;48.79
75086;BME280;63663;0.000;0.000;2022-12-10T00:56:08;100039.03;;;6.47;48.77
75086;BME280;63663;0.000;0.000;2022-12-10T00:58:34;100033.09;;;6.45;49.06
75086;BME280;63663;0.000;0.000;2022-12-10T01:01:13;100034.44;;;6.48;48.94
75086;BME280;63663;0.000;0.000;2022-12-10T01:03:39;100039.31;;;6.46;49.37
75086;BME280;63663;0.000;0.000;2022-12-10T01:06:12;100039.25;;;6.41;49.21
75086;BME280;63663;0.000;0.000;2022-12-10T01:08:38;100040.63;;;6.43;49.51
75086;BME280;63663;0.000;0.000;2022-12-10T01:11:03;100046.31;;;6.42;49.57
75086;BME280;63663;0.000;0.000;2022-12-10T01:13:28;100051.66;;;6.37;49.75
75086;BME280;63663;0.000;0.000;2022-12-10T01:15:54;100056.00;;;6.38;49.78
75086;BME280;63663;0.000;0.000;2022-12-10T01:18:19;100057.31;;;6.35;50.06
75086;BME280;63663;0.000;0.000;2022-12-10T01:20:44;100054.91;;;6.34;49.85
75086;BME280;63663;0.000;0.000;2022-12-10T01:23:09;100060.00;;;6.35;49.91
75086;BME280;63663;0.000;0.000;2022-12-10T01:25:34;100065.72;;;6.34;49.93
75086;BME280;63663;0.000;0.000;2022-12-10T01:27:59;100065.72;;;6.34;50.00
75086;BME280;63663;0.000;0.000;2022-12-10T01:30:25;100065.72;;;6.34;50.04
75086;BME280;63663;0.000;0.000;2022-12-10T01:32:50;100068.66;;;6.32;50.09
75086;BME280;63663;0.000;0.000;2022-12-10T01:35:15;100068.41;;;6.34;50.18
75086;BME280;63663;0.000;0.000;2022-12-10T01:37:40;100073.81;;;6.34;50.39
75086;BME280;63663;0.000;0.000;2022-12-10T01:40:06;100064.06;;;6.33;50.30
75086;BME280;63663;0.000;0.000;2022-12-10T01:42:31;100069.47;;;6.33;50.15
75086;BME280;63663;0.000;0.000;2022-12-10T01:44:58;100070.78;;;6.30;50.58
75086;BME280;63663;0.000;0.000;2022-12-10T01:47:23;100072.19;;;6.33;50.52
75086;BME280;63663;0.000;0.000;2022-12-10T01:49:48;100069.47;;;6.33;50.35
75086;BME280;63663;0.000;0.000;2022-12-10T01:52:13;100073.25;;;6.32;50.33
75086;BME280;63663;0.000;0.000;2022-12-10T01:54:40;100069.97;;;6.30;50.60
75086;BME280;63663;0.000;0.000;2022-12-10T01:59:31;100068.09;;;6.30;50.47
75086;BME280;63663;0.000;0.000;2022-12-10T02:04:45;100071.88;;;6.29;50.65
75086;BME280;63663;0.000;0.000;2022-12-10T02:09:43;100065.91;;;6.27;50.76
75086;BME280;63663;0.000;0.000;2022-12-10T02:15:21;100065.91;;;6.27;50.88
75086;BME280;63663;0.000;0.000;2022-12-10T02:17:25;100068.91;;;6.31;50.77
75086;BME280;63663;0.000;0.000;2022-12-10T02:22:17;100063.19;;;6.27;51.27
75086;BME280;63663;0.000;0.000;2022-12-10T02:24:44;100067.78;;;6.27;51.24
75086;BME280;63663;0.000;0.000;2022-12-10T02:27:14;100062.38;;;6.27;51.17
75086;BME280;63663;0.000;0.000;2022-12-10T02:29:40;100062.38;;;6.27;51.08
75086;BME280;63663;0.000;0.000;2022-12-10T02:32:14;100068.34;;;6.29;50.93
75086;BME280;63663;0.000;0.000;2022-12-10T02:34:41;100062.38;;;6.27;50.99
75086;BME280;63663;0.000;0.000;2022-12-10T02:37:08;100058.28;;;6.24;51.49
75086;BME280;63663;0.000;0.000;2022-12-10T02:39:38;100060.50;;;6.27;51.35
75086;BME280;63663;0.000;0.000;2022-12-10T02:42:04;100063.44;;;6.26;51.34
75086;BME280;63663;0.000;0.000;2022-12-10T02:44:31;100059.69;;;6.27;51.21
75086;BME280;63663;0.000;0.000;2022-12-10T02:46:57;100062.13;;;6.28;50.96
75086;BME280;63663;0.000;0.000;2022-12-10T02:49:23;100064.00;;;6.28;51.36
75086;BME280;63663;0.000;0.000;2022-12-10T02:51:49;100065.09;;;6.27;51.47
75086;BME280;63663;0.000;0.000;2022-12-10T02:56:58;100072.38;;;6.26;51.24
75086;BME280;63663;0.000;0.000;2022-12-10T02:59:27;100065.91;;;6.27;51.32
75086;BME280;63663;0.000;0.000;2022-12-10T03:02:02;100070.50;;;6.27;51.09
75086;BME280;63663;0.000;0.000;2022-12-10T03:04:48;100064.00;;;6.28;51.43
75086;BME280;63663;0.000;0.000;2022-12-10T03:07:21;100068.84;;;6.26;51.18
75086;BME280;63663;0.000;0.000;2022-12-10T03:09:58;100060.75;;;6.26;51.67
75086;BME280;63663;0.000;0.000;2022-12-10T03:12:29;100062.94;;;6.29;51.34
75086;BME280;63663;0.000;0.000;2022-12-10T03:14:58;100065.59;;;6.24;51.47
75086;BME280;63663;0.000;0.000;2022-12-10T03:17:23;100066.41;;;6.24;51.71
75086;BME280;63663;0.000;0.000;2022-12-10T03:19:49;100062.38;;;6.27;51.85
75086;BME280;63663;0.000;0.000;2022-12-10T03:22:16;100063.44;;;6.26;51.48
75086;BME280;63663;0.000;0.000;2022-12-10T03:24:42;100062.38;;;6.27;51.66
75086;BME280;63663;0.000;0.000;2022-12-10T03:27:08;100058.84;;;6.26;51.39
75086;BME280;63663;0.000;0.000;2022-12-10T03:29:38;100061.00;;;6.24;51.87
75086;BME280;63663;0.000;0.000;2022-12-10T03:32:04;100059.66;;;6.22;51.67
75086;BME280;63663;0.000;0.000;2022-12-10T03:34:30;100063.97;;;6.23;51.76
75086;BME280;63663;0.000;0.000;2022-12-10T03:36:56;100068.28;;;6.24;51.84
75086;BME280;63663;0.000;0.000;2022-12-10T03:39:22;100066.13;;;6.21;51.86
75086;BME280;63663;0.000;0.000;2022-12-10T03:41:47;100064.75;;;6.23;52.03
75086;BME280;63663;0.000;0.000;2022-12-10T03:44:12;100060.72;;;6.21;52.00
75086;BME280;63663;0.000;0.000;2022-12-10T03:46:38;100069.38;;;6.23;51.95
75086;BME280;63663;0.000;0.000;2022-12-10T03:49:03;100067.47;;;6.23;51.85
75086;BME280;63663;0.000;0.000;2022-12-10T03:51:29;100058.56;;;6.23;52.01
75086;BME280;63663;0.000;0.000;2022-12-10T03:53:54;100057.47;;;6.24;51.95
75086;BME280;63663;0.000;0.000;2022-12-10T03:56:19;100054.25;;;6.22;51.99
75086;BME280;63663;0.000;0.000;2022-12-10T03:58:45;100059.09;;;6.20;52.04
75086;BME280;63663;0.000;0.000;2022-12-10T04:01:10;100060.16;;;6.18;52.09
75086;BME280;63663;0.000;0.000;2022-12-10T04:03:36;100058.00;;;6.21;51.98
75086;BME280;63663;0.000;0.000;2022-12-10T04:06:02;100054.19;;;6.16;52.20
75086;BME280;63663;0.000;0.000;2022-12-10T04:08:28;100057.94;;;6.15;51.88
75086;BME280;63663;0.000;0.000;2022-12-10T04:10:53;100059.03;;;6.14;52.25
75086;BME280;63663;0.000;0.000;2022-12-10T04:13:18;100066.56;;;6.12;52.28
75086;BME280;63663;0.000;0.000;2022-12-10T04:15:43;100068.44;;;6.12;52.55
75086;BME280;63663;0.000;0.000;2022-12-10T04:18:08;100067.66;;;6.11;52.51
75086;BME280;63663;0.000;0.000;2022-12-10T04:20:33;100061.44;;;6.11;52.44
75086;BME280;63663;0.000;0.000;2022-12-10T04:22:58;100071.69;;;6.09;52.52
75086;BME280;63663;0.000;0.000;2022-12-10T04:25:24;100075.44;;;6.08;52.53
75086;BME280;63663;0.000;0.000;2022-12-10T04:27:49;100071.94;;;6.07;52.79
75086;BME280;63663;0.000;0.000;2022-12-10T04:30:14;100081.09;;;6.06;52.85
75086;BME280;63663;0.000;0.000;2022-12-10T04:32:40;100075.94;;;6.05;52.63
75086;BME280;63663;0.000;0.000;2022-12-10T04:35:05;100079.72;;;6.04;52.92
75086;BME280;63663;0.000;0.000;2022-12-10T04:37:30;100086.19;;;6.03;52.89
75086;BME280;63663;0.000;0.000;2022-12-10T04:39:56;100079.16;;;6.02;52.93
75086;BME280;63663;0.000;0.000;2022-12-10T04:42:21;100081.03;;;6.01;52.71
75086;BME280;63663;0.000;0.000;2022-12-10T04:44:46;100089.13;;;6.01;53.03
75086;BME280;63663;0.000;0.000;2022-12-10T04:47:12;100073.22;;;6.00;52.92
75086;BME280;63663;0.000;0.000;2022-12-10T04:49:37;100070.75;;;5.98;52.93
75086;BME280;63663;0.000;0.000;2022-12-10T04:52:02;100068.06;;;5.98;52.99
75086;BME280;63663;0.000;0.000;2022-12-10T04:54:28;100068.06;;;5.98;53.23
75086;BME280;63663;0.000;0.000;2022-12-10T04:56:53;100071.00;;;5.97;53.31
75086;BME280;63663;0.000;0.000;2022-12-10T04:59:18;100079.38;;;5.95;53.17
75086;BME280;63663;0.000;0.000;2022-12-10T05:01:44;100079.38;;;5.95;53.01
75086;BME280;63663;0.000;0.000;2022-12-10T05:04:10;100076.66;;;5.95;53.17
75086;BME280;63663;0.000;0.000;2022-12-10T05:06:35;100072.31;;;5.94;53.60
75086;BME280;63663;0.000;0.000;2022-12-10T05:09:01;100078.56;;;5.95;53.06
75086;BME280;63663;0.000;0.000;2022-12-10T05:11:27;100075.03;;;5.94;53.51
75086;BME280;63663;0.000;0.000;2022-12-10T05:13:53;100077.72;;;5.94;53.25
75086;BME280;63663;0.000;0.000;2022-12-10T05:16:19;100082.88;;;5.96;53.54
75086;BME280;63663;0.000;0.000;2022-12-10T05:18:44;100084.19;;;5.93;53.75
75086;BME280;63663;0.000;0.000;2022-12-10T05:21:10;100075.03;;;5.94;53.34
75086;BME280;63663;0.000;0.000;2022-12-10T05:23:36;100076.09;;;5.93;53.63
75086;BME280;63663;0.000;0.000;2022-12-10T05:26:03;100072.81;;;5.91;53.35
75086;BME280;63663;0.000;0.000;2022-12-10T05:28:29;100074.47;;;5.92;53.26
75086;BME280;63663;0.000;0.000;2022-12-10T05:30:55;100080.13;;;5.91;53.34
75086;BME280;63663;0.000;0.000;2022-12-10T05:33:20;100075.03;;;5.94;53.72
75086;BME280;63663;0.000;0.000;2022-12-10T05:35:59;100087.16;;;5.92;53.53
75086;BME280;63663;0.000;0.000;2022-12-10T05:38:25;100077.97;;;5.93;53.67
75086;BME280;63663;0.000;0.000;2022-12-10T05:40:50;100072.81;;;5.91;53.92
75086;BME280;63663;0.000;0.000;2022-12-10T05:43:15;100084.44;;;5.92;53.72
75086;BME280;63663;0.000;0.000;2022-12-10T05:45:41;100082.81;;;5.91;53.98
75086;BME280;63663;0.000;0.000;2022-12-10T05:48:06;100087.66;;;5.89;53.85
75086;BME280;63663;0.000;0.000;2022-12-10T05:50:31;100088.72;;;5.88;54.05
75086;BME280;63663;0.000;0.000;2022-12-10T05:52:56;100086.88;;;5.88;53.72
75086;BME280;63663;0.000;0.000;2022-12-10T05:55:21;100096.00;;;5.87;53.86
75086;BME280;63663;0.000;0.000;2022-12-10T05:57:47;100097.66;;;5.88;53.95
75086;BME280;63663;0.000;0.000;2022-12-10T06:00:12;100099.78;;;5.86;54.07
75086;BME280;63663;0.000;0.000;2022-12-10T06:02:37;100100.84;;;5.85;53.94
75086;BME280;63663;0.000;0.000;2022-12-10T06:05:02;100090.09;;;5.90;53.95
75086;BME280;63663;0.000;0.000;2022-12-10T06:07:29;100096.06;;;5.92;53.64
75086;BME280;63663;0.000;0.000;2022-12-10T06:09:54;100098.94;;;5.86;54.05
75086;BME280;63663;0.000;0.000;2022-12-10T06:12:19;100104.69;;;5.89;53.90
75086;BME280;63663;0.000;0.000;2022-12-10T06:14:44;100100.38;;;5.88;53.71
75086;BME280;63663;0.000;0.000;2022-12-10T06:17:10;100097.66;;;5.88;54.16
75086;BME280;63663;0.000;0.000;2022-12-10T06:19:36;100093.63;;;5.91;54.22
75086;BME280;63663;0.000;0.000;2022-12-10T06:22:01;100094.63;;;5.85;53.96
75086;BME280;63663;0.000;0.000;2022-12-10T06:24:26;100096.50;;;5.84;54.06
75086;BME280;63663;0.000;0.000;2022-12-10T06:26:51;100100.28;;;5.83;54.12
75086;BME280;63663;0.000;0.000;2022-12-10T06:29:16;100095.44;;;5.85;54.49
75086;BME280;63663;0.000;0.000;2022-12-10T06:31:42;100097.31;;;5.85;54.32
75086;BME280;63663;0.000;0.000;2022-12-10T06:34:07;100109.44;;;5.82;54.27
75086;BME280;63663;0.000;0.000;2022-12-10T06:36:32;100097.56;;;5.83;54.34
75086;BME280;63663;0.000;0.000;2022-12-10T06:38:57;100098.06;;;5.80;54.33
75086;BME280;63663;0.000;0.000;2022-12-10T06:41:22;100110.81;;;5.85;54.28
75086;BME280;63663;0.000;0.000;2022-12-10T06:43:48;100116.72;;;5.81;54.35
75086;BME280;63663;0.000;0.000;2022-12-10T06:46:14;100116.16;;;5.79;54.58
75086;BME280;63663;0.000;0.000;2022-12-10T06:48:39;100111.31;;;5.81;54.27
75086;BME280;63663;0.000;0.000;2022-12-10T06:51:05;100120.00;;;5.83;54.33
75086;BME280;63663;0.000;0.000;2022-12-10T06:53:31;100117.78;;;5.80;54.71
75086;BME280;63663;0.000;0.000;2022-12-10T06:55:57;100118.84;;;5.79;54.39
75086;BME280;63663;0.000;0.000;2022-12-10T06:58:23;100125.88;;;5.80;54.65
75086;BME280;63663;0.000;0.000;2022-12-10T07:00:48;100120.81;;;5.84;54.39
75086;BME280;63663;0.000;0.000;2022-12-10T07:03:13;100123.75;;;5.82;54.66
75086;BME280;63663;0.000;0.000;2022-12-10T07:05:38;100125.16;;;5.85;54.72
75086;BME280;63663;0.000;0.000;2022-12-10T07:08:03;100125.06;;;5.80;54.60
75086;BME280;63663;0.000;0.000;2022-12-10T07:10:28;100128.09;;;5.83;54.73
75086;BME280;63663;0.000;0.000;2022-12-10T07:12:54;100128.91;;;5.84;54.25
75086;BME280;63663;0.000;0.000;2022-12-10T07:15:19;100129.91;;;5.78;54.68
75086;BME280;63663;0.000;0.000;2022-12-10T07:17:44;100130.97;;;5.77;54.57
75086;BME280;63663;0.000;0.000;2022-12-10T07:20:09;100141.03;;;5.81;54.75
75086;BME280;63663;0.000;0.000;2022-12-10T07:22:34;100136.19;;;5.83;54.64
75086;BME280;63663;0.000;0.000;2022-12-10T07:25:00;100139.47;;;5.86;54.67
75086;BME280;63663;0.000;0.000;2022-12-10T07:27:25;100138.56;;;5.80;54.74
75086;BME280;63663;0.000;0.000;2022-12-10T07:29:50;100144.22;;;5.78;54.57
75086;BME280;63663;0.000;0.000;2022-12-10T07:32:15;100146.09;;;5.78;54.74
75086;BME280;63663;0.000;0.000;2022-12-10T07:34:40;100146.63;;;5.75;54.88
75086;BME280;63663;0.000;0.000;2022-12-10T07:37:05;100150.97;;;5.76;55.26
75086;BME280;63663;0.000;0.000;2022-12-10T07:39:31;100153.72;;;5.81;54.58
75086;BME280;63663;0.000;0.000;2022-12-10T07:41:56;100159.06;;;5.76;55.21
75086;BME280;63663;0.000;0.000;2022-12-10T07:44:22;100151.78;;;5.76;54.89
75086;BME280;63663;0.000;0.000;2022-12-10T07:46:48;100160.94;;;5.75;54.92
75086;BME280;63663;0.000;0.000;2022-12-10T07:49:13;100159.31;;;5.74;55.20
75086;BME280;63663;0.000;0.000;2022-12-10T07:51:39;100163.38;;;5.77;54.78
75086;BME280;63663;0.000;0.000;2022-12-10T07:54:04;100167.41;;;5.74;55.05
75086;BME280;63663;0.000;0.000;2022-12-10T07:56:29;100170.94;;;5.75;55.20
75086;BME280;63663;0.000;0.000;2022-12-10T07:58:55;100177.66;;;5.72;55.02
75086;BME280;63663;0.000;0.000;2022-12-10T08:01:22;100177.41;;;5.74;55.25
75086;BME280;63663;0.000;0.000;2022-12-10T08:03:47;100175.28;;;5.76;55.12
75086;BME280;63663;0.000;0.000;2022-12-10T08:06:14;100177.41;;;5.74;55.10
75086;BME280;63663;0.000;0.000;2022-12-10T08:08:40;100172.81;;;5.74;55.14
75086;BME280;63663;0.000;0.000;2022-12-10T08:11:06;100177.69;;;5.77;55.37
75086;BME280;63663;0.000;0.000;2022-12-10T08:13:31;100183.38;;;5.76;55.04
75086;BME280;63663;0.000;0.000;2022-12-10T08:16:04;100185.75;;;5.72;55.42
75086;BME280;63663;0.000;0.000;2022-12-10T08:18:30;100187.38;;;5.73;55.32
75086;BME280;63663;0.000;0.000;2022-12-10T08:20:56;100186.31;;;5.74;55.26
75086;BME280;63663;0.000;0.000;2022-12-10T08:23:21;100175.09;;;5.66;55.32
75086;BME280;63663;0.000;0.000;2022-12-10T08:25:46;100188.78;;;5.76;55.00
75086;BME280;63663;0.000;0.000;2022-12-10T08:28:11;100188.69;;;5.71;55.20
75086;BME280;63663;0.000;0.000;2022-12-10T08:30:36;100191.97;;;5.73;55.40
75086;BME280;63663;0.000;0.000;2022-12-10T08:33:02;100193.59;;;5.74;55.31
75086;BME280;63663;0.000;0.000;2022-12-10T08:35:27;100196.78;;;5.71;55.35
75086;BME280;63663;0.000;0.000;2022-12-10T08:37:52;100195.72;;;5.72;55.31
75086;BME280;63663;0.000;0.000;2022-12-10T08:40:17;100197.94;;;5.75;55.64
75086;BME280;63663;0.000;0.000;2022-12-10T08:42:42;100201.94;;;5.72;55.31
75086;BME280;63663;0.000;0.000;2022-12-10T08:45:08;100204.66;;;5.72;55.68
75086;BME280;63663;0.000;0.000;2022-12-10T08:47:33;100200.88;;;5.73;55.34
75086;BME280;63663;0.000;0.000;2022-12-10T08:49:58;100206.28;;;5.73;55.53
75086;BME280;63663;0.000;0.000;2022-12-10T08:52:23;100203.59;;;5.73;55.59
75086;BME280;63663;0.000;0.000;2022-12-10T08:54:48;100202.28;;;5.76;55.35
75086;BME280;63663;0.000;0.000;2022-12-10T08:57:14;100203.97;;;5.82;55.37
75086;BME280;63663;0.000;0.000;2022-12-10T08:59:39;100208.22;;;5.78;55.81
75086;BME280;63663;0.000;0.000;2022-12-10T09:02:04;100207.06;;;5.91;56.21
75086;BME280;63663;0.000;0.000;2022-12-10T09:04:29;100220.41;;;5.97;55.72
75086;BME280;63663;0.000;0.000;2022-12-10T09:06:54;100210.66;;;5.96;56.17
75086;BME280;63663;0.000;0.000;2022-12-10T09:09:20;100211.00;;;6.00;55.76
75086;BME280;63663;0.000;0.000;2022-12-10T09:11:45;100213.28;;;5.91;55.57
75086;BME280;63663;0.000;0.000;2022-12-10T09:14:10;100213.28;;;5.91;55.67
75086;BME280;63663;0.000;0.000;2022-12-10T09:16:35;100213.13;;;5.98;55.70
75086;BME280;63663;0.000;0.000;2022-12-10T09:19:01;100219.88;;;6.00;55.51
75086;BME280;63663;0.000;0.000;2022-12-10T09:21:27;100224.22;;;6.01;55.45
75086;BME280;63663;0.000;0.000;2022-12-10T09:23:53;100226.38;;;5.99;55.60
75086;BME280;63663;0.000;0.000;2022-12-10T09:26:18;100235.09;;;6.06;55.38
75086;BME280;63663;0.000;0.000;2022-12-10T09:28:44;100239.63;;;6.01;55.31
75086;BME280;63663;0.000;0.000;2022-12-10T09:31:09;100238.31;;;6.03;55.30
75086;BME280;63663;0.000;0.000;2022-12-10T09:33:35;100240.44;;;6.01;55.47
75086;BME280;63663;0.000;0.000;2022-12-10T09:36:02;100239.94;;;6.04;55.14
75086;BME280;63663;0.000;0.000;2022-12-10T09:38:27;100238.25;;;5.98;55.31
75086;BME280;63663;0.000;0.000;2022-12-10T09:43:55;100242.31;;;6.01;55.18
75086;BME280;63663;0.000;0.000;2022-12-10T09:51:34;100235.22;;;5.95;55.47
75086;BME280;63663;0.000;0.000;2022-12-10T09:54:00;100241.19;;;5.97;55.38
75086;BME280;63663;0.000;0.000;2022-12-10T09:56:33;100232.84;;;5.98;55.21
75086;BME280;63663;0.000;0.000;2022-12-10T09:59:01;100242.84;;;5.98;55.42
75086;BME280;63663;0.000;0.000;2022-12-10T10:01:28;100236.78;;;5.91;55.43
75086;BME280;63663;0.000;0.000;2022-12-10T10:03:54;100236.44;;;5.87;55.43
75086;BME280;63663;0.000;0.000;2022-12-10T10:06:20;100236.53;;;5.92;55.63
75086;BME280;63663;0.000;0.000;2022-12-10T10:08:47;100239.72;;;5.89;55.36
75086;BME280;63663;0.000;0.000;2022-12-10T10:11:18;100235.88;;;5.85;55.76
75086;BME280;63663;0.000;0.000;2022-12-10T10:13:45;100235.63;;;5.87;55.82
75086;BME280;63663;0.000;0.000;2022-12-10T10:18:50;100233.66;;;5.82;55.70
75086;BME280;63663;0.000;0.000;2022-12-10T10:21:20;100229.81;;;5.78;56.31
75086;BME280;63663;0.000;0.000;2022-12-10T10:23:46;100237.44;;;5.81;56.36
75086;BME280;63663;0.000;0.000;2022-12-10T10:26:11;100231.22;;;5.80;55.72
75086;BME280;63663;0.000;0.000;2022-12-10T10:28:36;100230.16;;;5.81;55.99
75086;BME280;63663;0.000;0.000;2022-12-10T10:31:07;100229.34;;;5.81;55.73
75086;BME280;63663;0.000;0.000;2022-12-10T10:33:40;100231.53;;;5.84;55.41
75086;BME280;63663;0.000;0.000;2022-12-10T10:36:12;100230.16;;;5.81;55.97
75086;BME280;63663;0.000;0.000;2022-12-10T10:38:37;100224.50;;;5.83;55.75
75086;BME280;63663;0.000;0.000;2022-12-10T10:41:02;100233.09;;;5.80;56.04
75086;BME280;63663;0.000;0.000;2022-12-10T10:43:39;100229.91;;;5.83;55.97
75086;BME280;63663;0.000;0.000;2022-12-10T10:48:36;100231.97;;;5.76;56.36
75086;BME280;63663;0.000;0.000;2022-12-10T10:51:08;100226.88;;;5.79;56.11
75086;BME280;63663;0.000;0.000;2022-12-10T10:53:41;100236.03;;;5.78;56.23
75086;BME280;63663;0.000;0.000;2022-12-10T10:58:31;100232.81;;;5.76;56.07
75086;BME280;63663;0.000;0.000;2022-12-10T11:01:01;100229.81;;;5.78;56.57
75086;BME280;63663;0.000;0.000;2022-12-10T11:03:27;100235.16;;;5.73;56.58
75086;BME280;63663;0.000;0.000;2022-12-10T11:05:53;100244.16;;;5.78;56.06
75086;BME280;63663;0.000;0.000;2022-12-10T11:08:19;100238.19;;;5.76;56.20
75086;BME280;63663;0.000;0.000;2022-12-10T11:10:48;100236.81;;;5.74;56.26
75086;BME280;63663;0.000;0.000;2022-12-10T11:13:23;100231.69;;;5.77;56.41
75086;BME280;63663;0.000;0.000;2022-12-10T11:21:01;100232.22;;;5.74;56.46
75086;BME280;63663;0.000;0.000;2022-12-10T11:23:28;100230.34;;;5.75;56.40
75086;BME280;63663;0.000;0.000;2022-12-10T11:25:59;100232.53;;;5.78;56.11
75086;BME280;63663;0.000;0.000;2022-12-10T11:28:46;100225.19;;;5.73;56.31
75086;BME280;63663;0.000;0.000;2022-12-10T11:33:48;100232.47;;;5.73;56.58
75086;BME280;63663;0.000;0.000;2022-12-10T11:36:23;100227.88;;;5.73;56.17
75086;BME280;63663;0.000;0.000;2022-12-10T11:41:38;100232.22;;;5.74;56.28
75086;BME280;63663;0.000;0.000;2022-12-10T11:46:56;100230.41;;;5.80;55.77
75086;BME280;63663;0.000;0.000;2022-12-10T11:49:46;100244.97;;;5.79;55.68
75086;BME280;63663;0.000;0.000;2022-12-10T11:57:21;100242.00;;;5.80;55.27
75086;BME280;63663;0.000;0.000;2022-12-10T11:59:54;100241.97;;;5.75;55.19
75086;BME280;63663;0.000;0.000;2022-12-10T12:07:33;100241.69;;;5.77;54.88
75086;BME280;63663;0.000;0.000;2022-12-10T12:12:41;100243.84;;;5.75;55.09
75086;BME280;63663;0.000;0.000;2022-12-10T12:15:17;100248.19;;;5.76;54.97
75086;BME280;63663;0.000;0.000;2022-12-10T12:17:45;100249.00;;;5.76;55.02
75086;BME280;63663;0.000;0.000;2022-12-10T12:20:28;100238.44;;;5.75;55.31
75086;BME280;63663;0.000;0.000;2022-12-10T12:22:57;100237.94;;;5.78;55.06
75086;BME280;63663;0.000;0.000;2022-12-10T12:25:36;100239.50;;;5.74;55.14
75086;BME280;63663;0.000;0.000;2022-12-10T12:30:34;100230.09;;;5.76;54.93
75086;BME280;63663;0.000;0.000;2022-12-10T12:33:02;100232.22;;;5.74;54.72
75086;BME280;63663;0.000;0.000;2022-12-10T12:37:56;100234.94;;;5.74;54.98
75086;BME280;63663;0.000;0.000;2022-12-10T12:40:27;100236.22;;;5.72;54.88
75086;BME280;63663;0.000;0.000;2022-12-10T12:43:03;100239.75;;;5.72;54.83
75086;BME280;63663;0.000;0.000;2022-12-10T12:50:26;100249.00;;;5.76;54.72
75086;BME280;63663;0.000;0.000;2022-12-10T12:52:53;100240.56;;;5.73;54.81
75086;BME280;63663;0.000;0.000;2022-12-10T12:55:22;100244.97;;;5.79;54.71
75086;BME280;63663;0.000;0.000;2022-12-10T12:57:55;100250.06;;;5.75;54.70
75086;BME280;63663;0.000;0.000;2022-12-10T13:00:22;100245.53;;;5.81;54.73
75086;BME280;63663;0.000;0.000;2022-12-10T13:02:59;100246.84;;;5.78;54.57
75086;BME280;63663;0.000;0.000;2022-12-10T13:05:46;100248.72;;;5.78;54.77
75086;BME280;63663;0.000;0.000;2022-12-10T13:10:51;100252.81;;;5.80;54.44
75086;BME280;63663;0.000;0.000;2022-12-10T13:15:54;100253.31;;;5.77;54.41
75086;BME280;63663;0.000;0.000;2022-12-10T13:18:33;100253.88;;;5.79;54.28
75086;BME280;63663;0.000;0.000;2022-12-10T13:23:50;100256.34;;;5.81;54.59
75086;BME280;63663;0.000;0.000;2022-12-10T13:26:28;100255.03;;;5.83;54.50
75086;BME280;63663;0.000;0.000;2022-12-10T13:28:54;100242.59;;;5.82;53.88
75086;BME280;63663;0.000;0.000;2022-12-10T13:31:21;100250.69;;;5.82;53.61
75086;BME280;63663;0.000;0.000;2022-12-10T13:36:22;100261.81;;;5.86;54.01
75086;BME280;63663;0.000;0.000;2022-12-10T13:39:10;100252.91;;;5.86;53.65
75086;BME280;63663;0.000;0.000;2022-12-10T13:41:41;100260.69;;;5.82;53.82
75086;BME280;63663;0.000;0.000;2022-12-10T13:49:25;100254.78;;;5.85;53.99
75086;BME280;63663;0.000;0.000;2022-12-10T14:01:52;100276.31;;;5.80;54.18
75086;BME280;63663;0.000;0.000;2022-12-10T14:07:02;100281.47;;;5.81;53.94
75086;BME280;63663;0.000;0.000;2022-12-10T14:09:29;100280.41;;;5.82;53.61
75086;BME280;63663;0.000;0.000;2022-12-10T14:11:56;100282.78;;;5.79;53.99
75086;BME280;63663;0.000;0.000;2022-12-10T14:14:41;100283.69;;;5.85;53.40
75086;BME280;63663;0.000;0.000;2022-12-10T14:17:20;100279.34;;;5.83;53.62
75086;BME280;63663;0.000;0.000;2022-12-10T14:19:48;100282.03;;;5.83;54.04
75086;BME280;63663;0.000;0.000;2022-12-10T14:22:18;100280.16;;;5.84;53.75
75086;BME280;63663;0.000;0.000;2022-12-10T14:24:45;100278.19;;;5.79;53.66
75086;BME280;63663;0.000;0.000;2022-12-10T14:27:17;100275.56;;;5.85;53.42
75086;BME280;63663;0.000;0.000;2022-12-10T14:29:46;100280.97;;;5.85;53.44
75086;BME280;63663;0.000;0.000;2022-12-10T14:32:13;100280.72;;;5.86;53.61
75086;BME280;63663;0.000;0.000;2022-12-10T14:34:39;100282.03;;;5.83;53.73
75086;BME280;63663;0.000;0.000;2022-12-10T14:37:04;100280.41;;;5.82;53.57
75086;BME280;63663;0.000;0.000;2022-12-10T14:39:30;100280.16;;;5.84;53.41
75086;BME280;63663;0.000;0.000;2022-12-10T14:42:00;100284.50;;;5.85;53.33
75086;BME280;63663;0.000;0.000;2022-12-10T14:44:26;100283.09;;;5.82;53.37